createdAt,value
2022-10-18T00:04:53.417Z,81.73
2022-10-18T00:14:53.440Z,77.76
2022-10-18T00:24:53.763Z,80.92
2022-10-18T00:34:53.797Z,84.50
2022-10-18T00:44:54.737Z,87.77
2022-10-18T00:54:54.178Z,88.93
2022-10-18T01:04:55.996Z,90.36
2022-10-18T01:14:54.625Z,90.20
2022-10-18T01:24:57.315Z,89.69
2022-10-18T01:34:54.943Z,91.74
2022-10-18T01:44:55.257Z,90.92
2022-10-18T01:54:55.299Z,88.93
2022-10-18T02:04:55.721Z,89.10
2022-10-18T02:14:55.750Z,88.84
2022-10-18T02:24:56.072Z,88.43
2022-10-18T02:34:56.095Z,90.06
2022-10-18T02:44:56.421Z,85.94
2022-10-18T02:54:56.469Z,82.90
2022-10-18T03:04:56.770Z,82.46
2022-10-18T03:14:56.783Z,78.68
2022-10-18T03:24:57.112Z,79.80
2022-10-18T03:34:57.142Z,79.36
2022-10-18T03:44:57.461Z,83.91
2022-10-18T03:54:57.480Z,85.82
2022-10-18T04:04:57.820Z,87.84
2022-10-18T04:14:57.839Z,87.26
2022-10-18T04:24:58.161Z,78.25
2022-10-18T04:34:58.187Z,82.09
2022-10-18T04:44:58.506Z,75.98
2022-10-18T04:54:58.524Z,73.53
2022-10-18T05:04:58.865Z,74.75
2022-10-18T05:14:58.891Z,74.75
2022-10-18T05:24:59.221Z,75.09
2022-10-18T05:34:59.234Z,75.84
2022-10-18T05:44:59.551Z,74.28
2022-10-18T05:54:59.590Z,75.29
2022-10-18T06:05:00.009Z,76.01
2022-10-18T06:15:00.037Z,72.01
2022-10-18T06:25:00.368Z,75.76
2022-10-18T06:35:00.387Z,76.72
2022-10-18T06:45:00.719Z,77.63
2022-10-18T06:55:00.746Z,76.58
2022-10-18T07:05:01.064Z,73.43
2022-10-18T07:15:03.481Z,66.30
2022-10-18T07:25:02.345Z,68.56
2022-10-18T07:35:01.755Z,67.49
2022-10-18T07:45:01.772Z,69.95
2022-10-18T07:55:02.051Z,70.25
2022-10-18T08:05:02.080Z,68.94
2022-10-18T08:15:02.400Z,70.69
2022-10-18T08:25:02.433Z,71.20
2022-10-18T08:35:04.514Z,71.30
2022-10-18T08:45:12.536Z,69.62
2022-10-18T08:55:04.039Z,68.10
2022-10-18T09:05:03.371Z,66.19
2022-10-18T09:15:03.413Z,65.19
2022-10-18T09:25:03.719Z,63.31
2022-10-18T09:35:03.748Z,60.94
2022-10-18T09:45:04.172Z,60.78
2022-10-18T09:55:04.206Z,59.32
2022-10-18T10:05:04.562Z,58.43
2022-10-18T10:15:04.619Z,59.06
2022-10-18T10:25:04.874Z,51.46
2022-10-18T10:35:05.095Z,52.77
2022-10-18T10:45:05.427Z,52.64
2022-10-18T10:55:11.281Z,49.63
2022-10-18T11:05:06.535Z,51.47
2022-10-18T11:15:06.062Z,54.46
2022-10-18T11:25:05.890Z,53.56
2022-10-18T11:35:06.423Z,55.95
2022-10-18T11:45:06.255Z,52.64
2022-10-18T11:55:06.552Z,52.19
2022-10-18T12:15:07.863Z,56.90
2022-10-18T12:25:07.175Z,56.23
2022-10-18T12:35:07.216Z,54.63
2022-10-18T12:45:07.528Z,52.74
2022-10-18T12:55:07.552Z,54.00
2022-10-18T13:05:16.499Z,55.32
2022-10-18T13:15:24.848Z,59.21
2022-10-18T13:25:09.013Z,62.91
2022-10-18T13:35:08.321Z,60.28
2022-10-18T13:45:08.348Z,64.10
2022-10-18T13:55:08.637Z,67.03
2022-10-18T14:05:23.873Z,67.83
2022-10-18T14:15:09.778Z,64.73
2022-10-18T14:25:09.067Z,65.26
2022-10-18T14:35:31.153Z,65.13
2022-10-18T14:55:09.586Z,64.00
2022-10-18T15:05:09.668Z,64.56
2022-10-18T15:15:09.745Z,67.09
2022-10-18T15:25:09.971Z,68.13
2022-10-18T15:35:10.291Z,70.26
2022-10-18T15:45:10.545Z,70.06
2022-10-18T15:55:10.635Z,70.09
2022-10-18T16:05:10.713Z,70.43
2022-10-18T16:15:10.811Z,72.86
2022-10-18T16:25:10.828Z,73.60
2022-10-18T16:35:11.127Z,74.57
2022-10-18T16:45:11.157Z,74.37
2022-10-18T16:55:11.487Z,75.01
2022-10-18T17:05:11.506Z,76.39
2022-10-18T17:15:11.837Z,76.53
2022-10-18T17:25:11.957Z,77.07
2022-10-18T17:35:12.215Z,78.41
2022-10-18T17:45:12.297Z,81.59
2022-10-18T17:55:12.788Z,82.73
2022-10-18T18:05:12.956Z,82.39
2022-10-18T18:15:13.885Z,83.78
2022-10-18T18:25:13.007Z,83.68
2022-10-18T18:35:14.566Z,83.14
2022-10-18T18:45:13.695Z,84.33
2022-10-18T18:55:14.769Z,84.53
2022-10-18T19:05:14.049Z,85.82
2022-10-18T19:15:14.057Z,87.64
2022-10-18T19:25:14.267Z,87.38
2022-10-18T19:35:14.555Z,87.22
2022-10-18T19:45:14.578Z,88.07
2022-10-18T19:55:15.587Z,89.43
2022-10-18T20:05:14.704Z,88.86
2022-10-18T20:15:14.996Z,89.01
2022-10-18T20:25:15.205Z,89.61
2022-10-18T20:35:15.332Z,89.51
2022-10-18T20:45:15.378Z,90.92
2022-10-18T20:55:15.682Z,91.06
2022-10-18T21:05:15.712Z,90.31
2022-10-18T21:15:16.054Z,90.35
2022-10-18T21:25:16.126Z,91.20
2022-10-18T21:35:16.277Z,90.90
2022-10-18T21:45:16.319Z,91.61
2022-10-18T21:55:16.640Z,92.22
2022-10-18T22:05:16.670Z,93.18
2022-10-18T22:15:16.987Z,93.59
2022-10-18T22:25:17.015Z,93.09
2022-10-18T22:35:17.340Z,91.82
2022-10-18T22:45:17.369Z,91.26
2022-10-18T22:55:17.679Z,92.49
2022-10-18T23:05:17.705Z,92.82
2022-10-18T23:15:18.033Z,91.39
2022-10-18T23:25:18.054Z,87.02
2022-10-18T23:35:18.372Z,85.25
2022-10-18T23:45:18.428Z,87.52
2022-10-18T23:55:18.739Z,87.57
